Time;durP1;ratioP1;P1;durP2;ratioP2;P2;SDS_P1;SDS_P2;PMS_P1;PMS_P2;Temp;Humidity;BMP_temperature;BMP_pressure;BME280_temperature;BME280_humidity;BME280_pressure;Samples;Min_cycle;Max_cycle;Signal;HPM_P1;HPM_P2
2021/04/14 00:00:59;;;;;;;13.65;1.88;;;;;;;-146.18;100.00;67994.34;9999770;29;20104;-67
2021/04/14 00:05:55;;;;;;;16.92;2.42;;;;;;;-146.18;100.00;67994.34;9983671;29;20068;-67
2021/04/14 00:10:51;;;;;;;16.10;2.35;;;;;;;-146.18;100.00;67994.34;10001946;29;20234;-67
2021/04/14 00:15:52;;;;;;;17.67;2.33;;;;;;;-146.18;100.00;67994.34;10002172;29;20061;-67
2021/04/14 00:20:48;;;;;;;15.07;2.10;;;;;;;-146.18;100.00;67994.34;9996462;29;20048;-66
2021/04/14 00:25:46;;;;;;;14.18;2.50;;;;;;;-146.18;100.00;67994.34;9987934;29;20151;-67
2021/04/14 00:30:43;;;;;;;15.25;2.25;;;;;;;-146.18;100.00;67994.34;9998753;29;20457;-67
2021/04/14 00:35:39;;;;;;;20.88;3.55;;;;;;;-146.18;100.00;67994.34;10004711;29;20079;-67
2021/04/14 00:40:38;;;;;;;19.38;2.78;;;;;;;-146.18;100.00;67994.34;10000499;29;20482;-66
2021/04/14 00:45:34;;;;;;;18.05;3.88;;;;;;;-146.18;100.00;67994.34;10004095;29;20451;-67
2021/04/14 00:50:30;;;;;;;15.50;2.65;;;;;;;-146.18;100.00;67994.34;10005171;29;20047;-67
2021/04/14 00:55:29;;;;;;;16.30;2.42;;;;;;;-146.18;100.00;67994.34;9993845;29;20586;-67
2021/04/14 01:00:34;;;;;;;20.13;2.95;;;;;;;-146.18;100.00;67994.34;9991746;29;20051;-67
2021/04/14 01:05:33;;;;;;;14.90;2.85;;;;;;;-146.18;100.00;67994.34;9984565;29;20626;-67
2021/04/14 01:10:29;;;;;;;14.80;2.53;;;;;;;-146.18;100.00;67994.34;10011479;29;20068;-67
2021/04/14 01:15:33;;;;;;;14.00;2.28;;;;;;;-146.18;100.00;67994.34;9995738;29;20079;-67
2021/04/14 01:20:29;;;;;;;16.27;3.15;;;;;;;-146.18;100.00;67994.34;10000101;29;20106;-66
2021/04/14 01:25:30;;;;;;;12.45;2.75;;;;;;;-146.18;100.00;67994.34;9988625;29;20410;-67
2021/04/14 01:30:29;;;;;;;14.13;2.58;;;;;;;-146.18;100.00;67994.34;10007582;29;20125;-66
2021/04/14 01:35:28;;;;;;;18.48;2.92;;;;;;;-146.18;100.00;67994.34;10002729;29;20047;-66
2021/04/14 01:40:25;;;;;;;16.90;2.45;;;;;;;-146.18;100.00;67994.34;10001717;29;20084;-67
2021/04/14 01:45:29;;;;;;;20.70;3.60;;;;;;;-146.18;100.00;67994.34;9990822;29;20391;-66
2021/04/14 01:50:25;;;;;;;20.83;3.63;;;;;;;-146.18;100.00;67994.34;10002387;29;20486;-68
2021/04/14 01:55:23;;;;;;;12.85;2.63;;;;;;;-146.18;100.00;67994.34;9997808;29;20131;-67
2021/04/14 02:00:20;;;;;;;14.70;3.17;;;;;;;-146.18;100.00;67994.34;10005600;29;20147;-68
2021/04/14 02:05:20;;;;;;;10.60;2.42;;;;;;;-146.18;100.00;67994.34;9990535;29;20051;-67
2021/04/14 02:10:16;;;;;;;13.30;3.15;;;;;;;-146.18;100.00;67994.34;9989378;29;20554;-67
2021/04/14 02:15:19;;;;;;;11.60;3.17;;;;;;;-146.18;100.00;67994.34;9994491;29;20040;-68
2021/04/14 02:20:16;;;;;;;20.25;3.00;;;;;;;-146.18;100.00;67994.34;10005144;29;20849;-68
2021/04/14 02:25:13;;;;;;;15.93;2.42;;;;;;;-146.18;100.00;67994.34;9994847;29;20741;-68
2021/04/14 02:30:15;;;;;;;18.48;2.88;;;;;;;-146.18;100.00;67994.34;10000886;29;20143;-68
2021/04/14 02:35:12;;;;;;;11.75;2.30;;;;;;;-146.18;100.00;67994.34;9994260;29;20122;-67
2021/04/14 02:40:08;;;;;;;11.30;2.38;;;;;;;-146.18;100.00;67994.34;10004927;29;20059;-67
2021/04/14 02:45:05;;;;;;;12.63;1.95;;;;;;;-146.18;100.00;67994.34;9994517;29;20056;-67
2021/04/14 02:50:01;;;;;;;9.52;2.53;;;;;;;-146.18;100.00;67994.34;9991904;29;20059;-67
2021/04/14 02:54:57;;;;;;;14.88;2.20;;;;;;;-146.18;100.00;67994.34;10000072;29;20487;-66
2021/04/14 02:59:53;;;;;;;16.00;2.40;;;;;;;-146.18;100.00;67994.34;9996330;29;20051;-66
2021/04/14 03:04:50;;;;;;;16.92;2.50;;;;;;;-146.18;100.00;67994.34;9984657;29;20040;-67
2021/04/14 03:09:46;;;;;;;11.63;2.20;;;;;;;-146.18;100.00;67994.34;9999259;29;20506;-67
2021/04/14 03:14:42;;;;;;;25.88;3.05;;;;;;;-146.18;100.00;67994.34;10001735;29;20060;-67
2021/04/14 03:19:38;;;;;;;11.93;2.33;;;;;;;-146.18;100.00;67994.34;10001204;29;20111;-67
2021/04/14 03:24:34;;;;;;;11.63;2.30;;;;;;;-146.18;100.00;67994.34;9985978;29;20627;-66
2021/04/14 03:29:30;;;;;;;18.67;2.95;;;;;;;-146.18;100.00;67994.34;9993369;29;20048;-67
2021/04/14 03:34:26;;;;;;;16.45;3.17;;;;;;;-146.18;100.00;67994.34;9990150;29;20040;-68
2021/04/14 03:39:22;;;;;;;10.70;3.03;;;;;;;-146.18;100.00;67994.34;9997166;29;20103;-67
2021/04/14 03:44:18;;;;;;;11.48;2.50;;;;;;;-146.18;100.00;67994.34;10001868;29;20080;-67
2021/04/14 03:49:14;;;;;;;11.02;2.97;;;;;;;-146.18;100.00;67994.34;9996648;29;20135;-67
2021/04/14 03:54:10;;;;;;;10.77;2.20;;;;;;;-146.18;100.00;67994.34;9991155;29;20055;-67
2021/04/14 03:59:06;;;;;;;16.75;3.40;;;;;;;-146.18;100.00;67994.34;9990841;29;20506;-67
2021/04/14 04:04:02;;;;;;;11.77;2.53;;;;;;;-146.18;100.00;67994.34;9986225;29;20047;-67
2021/04/14 04:08:58;;;;;;;12.98;2.60;;;;;;;-146.18;100.00;67994.34;9988514;29;20059;-68
2021/04/14 04:13:56;;;;;;;13.75;3.13;;;;;;;-146.18;100.00;67994.34;9990989;29;20048;-66
2021/04/14 04:18:52;;;;;;;8.35;2.38;;;;;;;-146.18;100.00;67994.34;9997838;29;20096;-67
2021/04/14 04:23:50;;;;;;;16.17;4.90;;;;;;;-146.18;100.00;67994.34;9996802;29;20506;-67
2021/04/14 04:28:47;;;;;;;11.95;2.95;;;;;;;-146.18;100.00;67994.34;10003927;29;20051;-67
2021/04/14 04:33:43;;;;;;;11.98;3.03;;;;;;;-146.18;100.00;67994.34;9996291;29;20048;-65
2021/04/14 04:38:39;;;;;;;13.43;2.78;;;;;;;-146.18;100.00;67994.34;10011227;29;20047;-65
2021/04/14 04:43:36;;;;;;;14.25;2.72;;;;;;;-146.18;100.00;67994.34;10001667;29;20043;-65
2021/04/14 04:48:32;;;;;;;11.93;2.90;;;;;;;-146.18;100.00;67994.34;9994965;29;20090;-67
2021/04/14 04:53:29;;;;;;;13.57;2.90;;;;;;;-146.18;100.00;67994.34;9998520;29;20047;-66
2021/04/14 04:58:29;;;;;;;17.48;3.13;;;;;;;-146.18;100.00;67994.34;9998000;29;20059;-67
2021/04/14 05:03:28;;;;;;;14.60;3.33;;;;;;;-146.18;100.00;67994.34;10001803;29;20147;-67
2021/04/14 05:08:24;;;;;;;13.48;2.33;;;;;;;-146.18;100.00;67994.34;9988923;29;20135;-66
2021/04/14 05:13:21;;;;;;;14.52;2.10;;;;;;;-146.18;100.00;67994.34;9996522;29;20055;-66
2021/04/14 05:18:17;;;;;;;10.98;2.42;;;;;;;-146.18;100.00;67994.34;9998427;29;20119;-65
2021/04/14 05:23:13;;;;;;;10.30;2.60;;;;;;;-146.18;100.00;67994.34;9995494;29;20542;-66
2021/04/14 05:28:11;;;;;;;9.52;2.13;;;;;;;-146.18;100.00;67994.34;9990763;29;20052;-65
2021/04/14 05:33:09;;;;;;;16.48;2.65;;;;;;;-146.18;100.00;67994.34;10010503;29;20048;-64
2021/04/14 05:38:06;;;;;;;9.15;2.08;;;;;;;-146.18;100.00;67994.34;9996270;29;20107;-65
2021/04/14 05:43:21;;;;;;;11.75;2.10;;;;;;;-146.18;100.00;67994.34;10004502;29;20086;-65
2021/04/14 05:48:17;;;;;;;12.20;2.85;;;;;;;-146.18;100.00;67994.34;9993756;29;20049;-64
2021/04/14 05:53:13;;;;;;;7.40;2.35;;;;;;;-146.18;100.00;67994.34;9989969;29;20074;-65
2021/04/14 05:58:09;;;;;;;11.82;2.58;;;;;;;-146.18;100.00;67994.34;9994460;29;20048;-67
2021/04/14 06:03:05;;;;;;;8.35;2.20;;;;;;;-146.18;100.00;67994.34;9995344;29;20067;-67
2021/04/14 06:08:03;;;;;;;9.45;2.25;;;;;;;-146.18;100.00;67994.34;10007813;29;20055;-72
2021/04/14 06:12:59;;;;;;;15.70;2.63;;;;;;;-146.18;100.00;67994.34;9995903;29;20047;-67
2021/04/14 06:17:55;;;;;;;9.00;2.03;;;;;;;-146.18;100.00;67994.34;9997803;29;20094;-66
2021/04/14 06:22:51;;;;;;;11.50;2.15;;;;;;;-146.18;100.00;67994.34;9991608;29;20047;-67
2021/04/14 06:27:55;;;;;;;10.38;2.13;;;;;;;-146.18;100.00;67994.34;9991183;29;20052;-67
2021/04/14 06:32:52;;;;;;;7.25;1.50;;;;;;;-146.18;100.00;67994.34;9992072;29;20077;-66
2021/04/14 06:37:48;;;;;;;12.70;2.42;;;;;;;-146.18;100.00;67994.34;9986509;29;20637;-68
2021/04/14 06:43:28;;;;;;;11.25;1.50;;;;;;;-146.18;100.00;67994.34;9998821;29;21235;-66
2021/04/14 06:48:35;;;;;;;10.10;1.90;;;;;;;-146.18;100.00;67994.34;9995236;29;20072;-67
2021/04/14 06:53:50;;;;;;;6.40;1.50;;;;;;;-146.18;100.00;67994.34;9997109;29;20866;-67
2021/04/14 06:59:05;;;;;;;7.07;1.42;;;;;;;-146.18;100.00;67994.34;9992021;29;20115;-66
2021/04/14 07:04:04;;;;;;;6.75;1.15;;;;;;;-146.18;100.00;67994.34;9989861;29;20127;-67
2021/04/14 07:09:07;;;;;;;11.05;1.20;;;;;;;-146.18;100.00;67994.34;9993635;29;20059;-67
2021/04/14 07:14:04;;;;;;;11.27;1.73;;;;;;;-146.18;100.00;67994.34;9988599;29;20048;-67
2021/04/14 07:19:17;;;;;;;9.45;1.27;;;;;;;-146.18;100.00;67994.34;10001193;29;20060;-67
2021/04/14 07:24:48;;;;;;;12.35;3.65;;;;;;;-146.18;100.00;67994.34;9992711;29;20723;-67
2021/04/14 07:30:13;;;;;;;10.10;2.25;;;;;;;-146.18;100.00;67994.34;9991162;29;20051;-66
2021/04/14 07:35:22;;;;;;;11.63;1.33;;;;;;;-146.18;100.00;67994.34;9987440;29;20112;-66
2021/04/14 07:40:40;;;;;;;7.88;1.05;;;;;;;-146.18;100.00;67994.34;9988991;29;20146;-66
2021/04/14 07:45:38;;;;;;;10.43;1.88;;;;;;;-146.18;100.00;67994.34;10000071;29;20045;-67
2021/04/14 07:50:41;;;;;;;11.85;1.95;;;;;;;-146.18;100.00;67994.34;9993837;29;20048;-67
2021/04/14 07:55:36;;;;;;;8.68;1.13;;;;;;;-146.18;100.00;67994.34;9991816;29;20075;-66
2021/04/14 08:00:39;;;;;;;8.82;1.20;;;;;;;-146.18;100.00;67994.34;9984804;29;20052;-67
2021/04/14 08:05:36;;;;;;;10.73;1.30;;;;;;;-146.18;100.00;67994.34;10004999;29;20084;-67
2021/04/14 08:10:32;;;;;;;8.88;1.50;;;;;;;-146.18;100.00;67994.34;10005014;29;20080;-67
2021/04/14 08:15:43;;;;;;;8.23;1.25;;;;;;;-146.18;100.00;67994.34;9990561;29;20104;-69
2021/04/14 08:20:42;;;;;;;11.18;1.23;;;;;;;-146.18;100.00;67994.34;9991194;29;20104;-66
2021/04/14 08:25:51;;;;;;;5.03;1.00;;;;;;;-146.18;100.00;67994.34;9988058;29;20052;-67
2021/04/14 08:30:47;;;;;;;11.55;1.27;;;;;;;-146.18;100.00;67994.34;9991985;29;20068;-67
2021/04/14 08:35:48;;;;;;;10.73;1.25;;;;;;;-146.18;100.00;67994.34;9996052;29;20048;-67
2021/04/14 08:40:51;;;;;;;6.88;1.27;;;;;;;-146.18;100.00;67994.34;10000795;29;20119;-67
2021/04/14 08:45:47;;;;;;;3.78;0.90;;;;;;;-146.18;100.00;67994.34;9994371;29;20855;-67
2021/04/14 08:50:49;;;;;;;4.63;0.90;;;;;;;-146.18;100.00;67994.34;10006778;29;20469;-67
2021/04/14 08:55:45;;;;;;;8.43;1.10;;;;;;;-146.18;100.00;67994.34;10008423;29;20139;-69
2021/04/14 09:00:42;;;;;;;7.20;1.30;;;;;;;-146.18;100.00;67994.34;10002924;29;20059;-67
2021/04/14 09:05:43;;;;;;;9.50;1.65;;;;;;;-146.18;100.00;67994.34;9998366;29;20048;-65
2021/04/14 09:10:57;;;;;;;8.13;1.23;;;;;;;-146.18;100.00;67994.34;10004523;29;20056;-66
2021/04/14 09:15:56;;;;;;;6.10;1.05;;;;;;;-146.18;100.00;67994.34;10009714;29;20083;-66
2021/04/14 09:21:21;;;;;;;4.60;0.98;;;;;;;-146.18;100.00;67994.34;9993340;29;20075;-67
2021/04/14 09:26:37;;;;;;;6.13;1.48;;;;;;;-146.18;100.00;67994.34;9993928;29;20056;-66
2021/04/14 09:31:39;;;;;;;6.55;1.65;;;;;;;-146.18;100.00;67994.34;10005423;29;20866;-67
2021/04/14 09:36:44;;;;;;;7.07;1.17;;;;;;;-146.18;100.00;67994.34;10001581;29;20495;-67
2021/04/14 09:41:40;;;;;;;9.35;1.67;;;;;;;-146.18;100.00;67994.34;9996844;29;20637;-67
2021/04/14 09:46:52;;;;;;;6.63;1.10;;;;;;;-146.18;100.00;67994.34;10008796;29;20060;-67
2021/04/14 09:51:59;;;;;;;4.97;1.38;;;;;;;-146.18;100.00;67994.34;9993776;29;20048;-66
2021/04/14 09:56:58;;;;;;;6.63;1.20;;;;;;;-146.18;100.00;67994.34;9992618;29;20570;-67
2021/04/14 10:02:17;;;;;;;;;;;;;;;-146.18;100.00;67994.34;10004298;29;20099;-67
2021/04/14 10:07:23;;;;;;;4.45;1.10;;;;;;;-146.18;100.00;67994.34;10001725;29;20011;-67
2021/04/14 10:12:27;;;;;;;9.85;1.40;;;;;;;-146.18;100.00;67994.34;9999748;29;20059;-67
2021/04/14 10:17:26;;;;;;;4.13;1.23;;;;;;;-146.18;100.00;67994.34;9991842;29;20364;-67
2021/04/14 10:22:34;;;;;;;3.90;0.70;;;;;;;-146.18;100.00;67994.34;10001099;29;20044;-67
2021/04/14 10:27:30;;;;;;;10.13;1.20;;;;;;;-146.18;100.00;67994.34;9994015;29;20108;-68
2021/04/14 10:32:29;;;;;;;5.13;0.90;;;;;;;-146.18;100.00;67994.34;10006209;29;20051;-68
2021/04/14 10:37:25;;;;;;;6.13;0.88;;;;;;;-146.18;100.00;67994.34;10013674;29;20064;-68
2021/04/14 10:42:28;;;;;;;11.93;1.30;;;;;;;-146.18;100.00;67994.34;9998742;29;20511;-66
2021/04/14 10:47:32;;;;;;;5.25;1.15;;;;;;;-146.18;100.00;67994.34;10012936;29;20051;-66
2021/04/14 10:52:30;;;;;;;4.53;0.82;;;;;;;-146.18;100.00;67994.34;10004425;29;20056;-65
2021/04/14 10:57:30;;;;;;;4.15;0.88;;;;;;;-146.18;100.00;67994.34;9992856;29;20060;-65
2021/04/14 11:02:29;;;;;;;4.43;0.77;;;;;;;-146.18;100.00;67994.34;9995239;29;20569;-64
2021/04/14 11:07:27;;;;;;;8.07;1.00;;;;;;;-146.18;100.00;67994.34;9988579;29;20056;-66
2021/04/14 11:12:25;;;;;;;7.95;1.58;;;;;;;-146.18;100.00;67994.34;9981111;29;20119;-65
2021/04/14 11:17:28;;;;;;;6.50;1.00;;;;;;;-146.18;100.00;67994.34;9983922;29;20134;-68
2021/04/14 11:22:25;;;;;;;5.33;1.23;;;;;;;-146.18;100.00;67994.34;9994660;29;20079;-67
2021/04/14 11:27:28;;;;;;;6.82;1.25;;;;;;;-146.18;100.00;67994.34;9995933;29;20044;-67
2021/04/14 11:32:25;;;;;;;8.65;1.25;;;;;;;-146.18;100.00;67994.34;9990560;29;20080;-67
2021/04/14 11:37:47;;;;;;;6.55;1.42;;;;;;;-146.18;100.00;67994.34;9997724;29;20091;-68
2021/04/14 11:42:55;;;;;;;6.30;1.00;;;;;;;-146.18;100.00;67994.34;9988697;29;20052;-67
2021/04/14 11:47:52;;;;;;;4.85;1.17;;;;;;;-146.18;100.00;67994.34;9995950;29;20513;-67
2021/04/14 11:52:48;;;;;;;7.75;1.10;;;;;;;-146.18;100.00;67994.34;9983435;29;20055;-66
2021/04/14 11:57:45;;;;;;;6.50;1.15;;;;;;;-146.18;100.00;67994.34;9986433;29;20499;-66
2021/04/14 12:02:43;;;;;;;7.22;0.98;;;;;;;-146.18;100.00;67994.34;9989806;29;20107;-68
2021/04/14 12:07:39;;;;;;;4.03;0.77;;;;;;;-146.18;100.00;67994.34;9998357;29;20464;-68
2021/04/14 12:12:35;;;;;;;4.13;0.82;;;;;;;-146.18;100.00;67994.34;9987941;29;20106;-67
2021/04/14 12:17:33;;;;;;;8.90;1.83;;;;;;;-146.18;100.00;67994.34;9992738;29;20056;-67
2021/04/14 12:22:29;;;;;;;5.38;0.90;;;;;;;-146.18;100.00;67994.34;10000727;29;20052;-67
2021/04/14 12:27:25;;;;;;;3.30;0.80;;;;;;;-146.18;100.00;67994.34;9995030;29;20082;-66
2021/04/14 12:32:23;;;;;;;5.47;1.05;;;;;;;-146.18;100.00;67994.34;9999317;29;20096;-67
2021/04/14 12:37:19;;;;;;;3.95;0.93;;;;;;;-146.18;100.00;67994.34;10001220;29;20044;-66
2021/04/14 12:42:15;;;;;;;3.28;0.98;;;;;;;-146.18;100.00;67994.34;10003025;29;20062;-68
2021/04/14 12:47:18;;;;;;;5.47;0.77;;;;;;;-146.18;100.00;67994.34;10005582;29;20052;-69
2021/04/14 12:52:34;;;;;;;7.05;1.15;;;;;;;-146.18;100.00;67994.34;9999005;29;20055;-68
2021/04/14 12:57:31;;;;;;;3.63;0.75;;;;;;;-146.18;100.00;67994.34;9998201;29;20047;-68
2021/04/14 13:02:36;;;;;;;5.95;0.70;;;;;;;-146.18;100.00;67994.34;10004835;29;20043;-68
2021/04/14 13:07:48;;;;;;;4.65;0.90;;;;;;;-146.18;100.00;67994.34;10002244;29;20107;-68
2021/04/14 13:12:44;;;;;;;6.35;1.08;;;;;;;-146.18;100.00;67994.34;9997466;29;20080;-68
2021/04/14 13:17:46;;;;;;;4.00;0.93;;;;;;;-146.18;100.00;67994.34;10000654;29;20055;-66
2021/04/14 13:22:58;;;;;;;4.70;0.80;;;;;;;-146.18;100.00;67994.34;9999799;29;20163;-64
2021/04/14 13:28:17;;;;;;;7.22;1.83;;;;;;;-146.18;100.00;67994.34;10002300;29;20051;-64
2021/04/14 13:33:25;;;;;;;3.60;0.70;;;;;;;-146.18;100.00;67994.34;9998313;29;20052;-64
2021/04/14 13:38:24;;;;;;;3.33;0.75;;;;;;;-146.18;100.00;67994.34;10012351;29;20463;-65
2021/04/14 13:43:38;;;;;;;2.85;0.95;;;;;;;-146.18;100.00;67994.34;10002186;29;20052;-65
2021/04/14 13:49:02;;;;;;;4.57;1.10;;;;;;;-146.18;100.00;67994.34;9999910;29;20103;-64
2021/04/14 13:53:59;;;;;;;3.97;1.25;;;;;;;-146.18;100.00;67994.34;10026733;29;20052;-65
2021/04/14 13:59:06;;;;;;;4.78;0.90;;;;;;;-146.18;100.00;67994.34;9992348;29;20055;-66
2021/04/14 14:04:02;;;;;;;8.73;1.63;;;;;;;-146.18;100.00;67994.34;9997363;29;20072;-67
2021/04/14 14:09:01;;;;;;;6.05;0.98;;;;;;;-146.18;100.00;67994.34;10001365;29;20044;-67
2021/04/14 14:14:04;;;;;;;3.58;1.10;;;;;;;-146.18;100.00;67994.34;10001503;29;20115;-66
2021/04/14 14:19:23;;;;;;;3.92;0.77;;;;;;;-146.18;100.00;67994.34;10001799;29;20045;-66
2021/04/14 14:24:20;;;;;;;4.40;0.70;;;;;;;-146.18;100.00;67994.34;10002040;29;20147;-67
2021/04/14 14:29:19;;;;;;;7.32;1.88;;;;;;;-146.18;100.00;67994.34;9998017;29;20052;-66
2021/04/14 14:34:15;;;;;;;5.03;0.73;;;;;;;-146.18;100.00;67994.34;9997413;29;20178;-66
2021/04/14 14:39:20;;;;;;;4.53;0.95;;;;;;;-146.18;100.00;67994.34;10001392;29;20052;-67
2021/04/14 14:44:25;;;;;;;3.75;1.08;;;;;;;-146.18;100.00;67994.34;9999348;29;20063;-68
2021/04/14 14:49:32;;;;;;;5.65;1.17;;;;;;;-146.18;100.00;67994.34;9992586;29;20473;-66
2021/04/14 14:54:30;;;;;;;7.13;1.13;;;;;;;-146.18;100.00;67994.34;9999517;29;20062;-68
2021/04/14 14:59:35;;;;;;;5.05;0.82;;;;;;;-146.18;100.00;67994.34;9985062;29;20545;-67
2021/04/14 15:04:31;;;;;;;4.70;1.10;;;;;;;-146.18;100.00;67994.34;9968961;29;20056;-67
2021/04/14 15:09:27;;;;;;;3.40;1.15;;;;;;;-146.18;100.00;67994.34;9982452;29;20051;-67
2021/04/14 15:14:23;;;;;;;10.57;1.90;;;;;;;-146.18;100.00;67994.34;9986041;29;20640;-67
2021/04/14 15:19:20;;;;;;;6.95;1.20;;;;;;;-146.18;100.00;67994.34;9987072;29;20530;-66
2021/04/14 15:24:17;;;;;;;4.32;1.10;;;;;;;-146.18;100.00;67994.34;10004899;29;20107;-66
2021/04/14 15:29:13;;;;;;;4.38;1.00;;;;;;;-146.18;100.00;67994.34;9992124;29;20063;-67
2021/04/14 15:34:09;;;;;;;7.88;2.03;;;;;;;-146.18;100.00;67994.34;9990687;29;20104;-68
2021/04/14 15:39:07;;;;;;;7.97;1.15;;;;;;;-146.18;100.00;67994.34;9970184;29;20112;-66
2021/04/14 15:44:05;;;;;;;6.32;1.58;;;;;;;-146.18;100.00;67994.34;9993956;29;20134;-67
2021/04/14 15:49:02;;;;;;;4.78;1.20;;;;;;;-146.18;100.00;67994.34;9994167;29;20071;-67
2021/04/14 15:53:59;;;;;;;7.15;1.30;;;;;;;-146.18;100.00;67994.34;9994558;29;20052;-66
2021/04/14 15:59:00;;;;;;;4.55;1.08;;;;;;;-146.18;100.00;67994.34;9990322;29;20044;-67
2021/04/14 16:03:58;;;;;;;6.88;2.05;;;;;;;-146.18;100.00;67994.34;9989412;29;20451;-66
2021/04/14 16:08:55;;;;;;;5.43;1.52;;;;;;;-146.18;100.00;67994.34;9996224;29;20561;-67
2021/04/14 16:13:51;;;;;;;5.80;1.65;;;;;;;-146.18;100.00;67994.34;9997835;29;20573;-67
2021/04/14 16:18:46;;;;;;;4.20;1.70;;;;;;;-146.18;100.00;67994.34;10009740;29;20048;-67
2021/04/14 16:23:45;;;;;;;5.65;2.17;;;;;;;-146.18;100.00;67994.34;9989368;29;20052;-67
2021/04/14 16:28:41;;;;;;;7.55;2.05;;;;;;;-146.18;100.00;67994.34;9990997;29;20059;-67
2021/04/14 16:33:37;;;;;;;5.13;1.35;;;;;;;-146.18;100.00;67994.34;9983036;29;20134;-67
2021/04/14 16:38:33;;;;;;;4.75;1.00;;;;;;;-146.18;100.00;67994.34;9974885;29;20048;-67
2021/04/14 16:43:34;;;;;;;3.55;1.35;;;;;;;-146.18;100.00;67994.34;9992969;29;20075;-67
2021/04/14 16:48:31;;;;;;;11.38;2.97;;;;;;;-146.18;100.00;67994.34;9998396;29;20048;-67
2021/04/14 16:53:28;;;;;;;6.68;1.40;;;;;;;-146.18;100.00;67994.34;9995152;29;20048;-68
2021/04/14 16:58:28;;;;;;;6.55;1.30;;;;;;;-146.18;100.00;67994.34;9986003;29;20107;-68
2021/04/14 17:03:25;;;;;;;7.25;1.60;;;;;;;-146.18;100.00;67994.34;9991142;29;20158;-66
2021/04/14 17:08:21;;;;;;;6.38;1.45;;;;;;;-146.18;100.00;67994.34;9990993;29;20051;-67
2021/04/14 17:13:25;;;;;;;5.60;1.55;;;;;;;-146.18;100.00;67994.34;9993595;29;20048;-69
2021/04/14 17:18:25;;;;;;;4.20;1.50;;;;;;;-146.18;100.00;67994.34;9970328;29;20104;-66
2021/04/14 17:23:23;;;;;;;4.63;1.80;;;;;;;-146.18;100.00;67994.34;9995341;29;20052;-65
2021/04/14 17:28:19;;;;;;;9.98;1.77;;;;;;;-146.18;100.00;67994.34;9993174;29;20051;-67
2021/04/14 17:33:16;;;;;;;4.55;1.48;;;;;;;-146.18;100.00;67994.34;10005439;29;20044;-65
2021/04/14 17:38:14;;;;;;;6.60;2.00;;;;;;;-146.18;100.00;67994.34;10003967;29;20048;-69
2021/04/14 17:43:15;;;;;;;4.85;1.50;;;;;;;-146.18;100.00;67994.34;10006723;29;20044;-74
2021/04/14 17:48:14;;;;;;;10.32;3.65;;;;;;;-146.18;100.00;67994.34;9993807;29;20561;-67
2021/04/14 17:53:10;;;;;;;6.03;1.83;;;;;;;-146.18;100.00;67994.34;10009076;29;21199;-67
2021/04/14 17:58:09;;;;;;;9.77;3.05;;;;;;;-146.18;100.00;67994.34;9990295;29;20123;-67
2021/04/14 18:03:09;;;;;;;10.27;3.55;;;;;;;-146.18;100.00;67994.34;9994222;29;20051;-66
2021/04/14 18:08:07;;;;;;;6.15;2.30;;;;;;;-146.18;100.00;67994.34;10001118;29;20521;-65
2021/04/14 18:13:06;;;;;;;8.13;2.60;;;;;;;-146.18;100.00;67994.34;9991558;29;20055;-65
2021/04/14 18:18:02;;;;;;;4.80;1.90;;;;;;;-146.18;100.00;67994.34;9995836;29;20091;-66
2021/04/14 18:22:59;;;;;;;9.07;2.95;;;;;;;-146.18;100.00;67994.34;9998253;29;20139;-67
2021/04/14 18:27:55;;;;;;;9.75;3.90;;;;;;;-146.18;100.00;67994.34;9999207;29;20091;-69
2021/04/14 18:32:52;;;;;;;8.75;2.92;;;;;;;-146.18;100.00;67994.34;9995058;29;20125;-67
2021/04/14 18:37:48;;;;;;;8.52;2.55;;;;;;;-146.18;100.00;67994.34;9994494;29;20071;-70
2021/04/14 18:42:44;;;;;;;7.10;2.72;;;;;;;-146.18;100.00;67994.34;9992410;29;20051;-66
2021/04/14 18:47:42;;;;;;;7.57;1.85;;;;;;;-146.18;100.00;67994.34;9988679;29;20059;-69
2021/04/14 18:52:38;;;;;;;7.45;2.15;;;;;;;-146.18;100.00;67994.34;10003827;29;20055;-67
2021/04/14 18:57:35;;;;;;;8.80;1.60;;;;;;;-146.18;100.00;67994.34;9988302;29;20509;-66
2021/04/14 19:02:31;;;;;;;9.85;1.80;;;;;;;-146.18;100.00;67994.34;10002257;29;20051;-69
2021/04/14 19:07:27;;;;;;;5.55;1.30;;;;;;;-146.18;100.00;67994.34;9983575;29;20474;-68
2021/04/14 19:12:23;;;;;;;5.40;1.52;;;;;;;-146.18;100.00;67994.34;9984492;29;20115;-69
2021/04/14 19:17:19;;;;;;;5.80;1.50;;;;;;;-146.18;100.00;67994.34;9988818;29;20103;-68
2021/04/14 19:22:15;;;;;;;6.25;1.65;;;;;;;-146.18;100.00;67994.34;9987704;29;20048;-68
2021/04/14 19:27:12;;;;;;;4.30;1.45;;;;;;;-146.18;100.00;67994.34;9994428;29;20066;-67
2021/04/14 19:32:10;;;;;;;10.43;1.83;;;;;;;-146.18;100.00;67994.34;9984811;29;20059;-67
2021/04/14 19:37:06;;;;;;;5.20;1.45;;;;;;;-146.18;100.00;67994.34;9991205;29;20281;-66
2021/04/14 19:42:02;;;;;;;6.35;1.63;;;;;;;-146.18;100.00;67994.34;9993894;29;20141;-68
2021/04/14 19:46:58;;;;;;;8.27;2.05;;;;;;;-146.18;100.00;67994.34;10007311;29;20068;-65
2021/04/14 19:51:55;;;;;;;7.90;1.52;;;;;;;-146.18;100.00;67994.34;10013891;29;20043;-67
2021/04/14 19:56:51;;;;;;;6.05;1.60;;;;;;;-146.18;100.00;67994.34;9988301;29;20056;-70
2021/04/14 20:01:47;;;;;;;4.78;1.75;;;;;;;-146.18;100.00;67994.34;9991442;29;20072;-68
2021/04/14 20:06:43;;;;;;;6.28;1.58;;;;;;;-146.18;100.00;67994.34;9987046;29;20047;-68
2021/04/14 20:11:39;;;;;;;7.45;1.88;;;;;;;-146.18;100.00;67994.34;9993252;29;20052;-68
2021/04/14 20:16:35;;;;;;;6.97;1.90;;;;;;;-146.18;100.00;67994.34;9994381;29;20044;-70
2021/04/14 20:21:32;;;;;;;9.90;2.28;;;;;;;-146.18;100.00;67994.34;9997732;29;20099;-70
2021/04/14 20:26:28;;;;;;;23.65;11.45;;;;;;;-146.18;100.00;67994.34;10003559;29;20056;-70
2021/04/14 20:31:25;;;;;;;7.75;2.13;;;;;;;-146.18;100.00;67994.34;9998126;29;20055;-70
2021/04/14 20:36:21;;;;;;;8.82;3.65;;;;;;;-146.18;100.00;67994.34;10011165;29;20100;-69
2021/04/14 20:41:20;;;;;;;8.32;2.00;;;;;;;-146.18;100.00;67994.34;9994665;29;20044;-69
2021/04/14 20:46:16;;;;;;;9.18;2.90;;;;;;;-146.18;100.00;67994.34;10000613;29;20055;-70
2021/04/14 20:51:12;;;;;;;11.27;2.60;;;;;;;-146.18;100.00;67994.34;9995070;29;20518;-69
2021/04/14 20:56:09;;;;;;;11.80;2.95;;;;;;;-146.18;100.00;67994.34;10014589;29;20048;-70
2021/04/14 21:01:05;;;;;;;5.35;2.33;;;;;;;-146.18;100.00;67994.34;10001892;29;20830;-70
2021/04/14 21:06:01;;;;;;;7.07;2.80;;;;;;;-146.18;100.00;67994.34;9993862;29;20052;-70
2021/04/14 21:10:57;;;;;;;9.02;2.90;;;;;;;-146.18;100.00;67994.34;9997680;29;20048;-69
2021/04/14 21:15:53;;;;;;;5.28;2.35;;;;;;;-146.18;100.00;67994.34;10001965;29;20047;-70
2021/04/14 21:20:51;;;;;;;7.15;2.92;;;;;;;-146.18;100.00;67994.34;9998818;29;20149;-70
2021/04/14 21:25:47;;;;;;;8.80;2.97;;;;;;;-146.18;100.00;67994.34;10010882;29;20079;-70
2021/04/14 21:30:44;;;;;;;6.45;2.92;;;;;;;-146.18;100.00;67994.34;10006092;29;20138;-69
2021/04/14 21:35:40;;;;;;;7.95;3.08;;;;;;;-146.18;100.00;67994.34;9994788;29;20507;-68
2021/04/14 21:40:37;;;;;;;6.60;3.42;;;;;;;-146.18;100.00;67994.34;10004961;29;20079;-68
2021/04/14 21:45:34;;;;;;;7.97;3.03;;;;;;;-146.18;100.00;67994.34;10008222;29;20566;-68
2021/04/14 21:50:30;;;;;;;6.47;3.78;;;;;;;-146.18;100.00;67994.34;10001693;29;20147;-67
2021/04/14 21:55:26;;;;;;;7.70;3.65;;;;;;;-146.18;100.00;67994.34;9995810;29;20044;-68
2021/04/14 22:00:40;;;;;;;11.45;3.67;;;;;;;-146.18;100.00;67994.34;9994949;29;20055;-69
2021/04/14 22:05:37;;;;;;;;;;;;;;;-146.18;100.00;67994.34;9990587;29;20413;-68
2021/04/14 22:10:34;;;;;;;7.22;3.70;;;;;;;-146.18;100.00;67994.34;10002129;29;19982;-66
2021/04/14 22:15:30;;;;;;;7.53;3.60;;;;;;;-146.18;100.00;67994.34;10001193;29;20574;-64
2021/04/14 22:20:29;;;;;;;8.52;3.50;;;;;;;-146.18;100.00;67994.34;10001560;29;20052;-68
2021/04/14 22:25:28;;;;;;;8.90;3.78;;;;;;;-146.18;100.00;67994.34;9999602;29;20564;-66
2021/04/14 22:30:29;;;;;;;12.05;4.15;;;;;;;-146.18;100.00;67994.34;10010598;29;20052;-68